Terminal Aerodrome Forecast
Issued by NWS

Current Version | Previous Version | Graphics & Text | Print | Product List | Glossary On
Versions: 1 2 3 4 5 6 7 8 9 10 11 12 13 14 15 16 17 18 19 20 21 22 23 24
874
FTUS41 KPBZ 010520
TAFMGW
TAF
KMGW 010520Z 0106/0206 14009KT P6SM -RA OVC050
     FM011200 19007KT P6SM VCSH OVC025
     FM011700 21006KT P6SM VCTS BKN035CB
     FM020000 VRB03KT P6SM VCSH BKN025=

USA.gov is the U.S. government's official web portal to all federal, state and local government web resources and services.